sensor_id;sensor_type;location;lat;lon;timestamp;pressure;altitude;pressure_sealevel;temperature;humidity
70544;BME280;58097;48.364;-1.224;2023-02-23T00:01:36;99603.72;;;4.77;82.38
70544;BME280;58097;48.364;-1.224;2023-02-23T00:04:02;99595.78;;;4.74;82.30
70544;BME280;58097;48.364;-1.224;2023-02-23T00:06:29;99600.66;;;4.71;82.61
70544;BME280;58097;48.364;-1.224;2023-02-23T00:08:55;99593.84;;;4.65;82.58
70544;BME280;58097;48.364;-1.224;2023-02-23T00:11:22;99605.81;;;4.64;82.42
70544;BME280;58097;48.364;-1.224;2023-02-23T00:13:49;99599.69;;;4.60;82.56
70544;BME280;58097;48.364;-1.224;2023-02-23T00:16:20;99599.81;;;4.59;82.64
70544;BME280;58097;48.364;-1.224;2023-02-23T00:18:48;99587.41;;;4.55;82.50
70544;BME280;58097;48.364;-1.224;2023-02-23T00:21:17;99586.53;;;4.54;82.66
70544;BME280;58097;48.364;-1.224;2023-02-23T00:23:54;99586.81;;;4.51;82.86
70544;BME280;58097;48.364;-1.224;2023-02-23T00:26:21;99578.72;;;4.50;82.55
70544;BME280;58097;48.364;-1.224;2023-02-23T00:28:51;99579.84;;;4.47;82.70
70544;BME280;58097;48.364;-1.224;2023-02-23T00:31:17;99572.66;;;4.46;82.72
70544;BME280;58097;48.364;-1.224;2023-02-23T00:33:43;99579.13;;;4.45;82.82
70544;BME280;58097;48.364;-1.224;2023-02-23T00:36:11;99571.91;;;4.44;82.49
70544;BME280;58097;48.364;-1.224;2023-02-23T00:38:38;99573.19;;;4.40;82.57
70544;BME280;58097;48.364;-1.224;2023-02-23T00:41:09;99570.72;;;4.37;82.49
70544;BME280;58097;48.364;-1.224;2023-02-23T00:43:36;99566.47;;;4.33;82.65
70544;BME280;58097;48.364;-1.224;2023-02-23T00:46:02;99562.13;;;4.30;82.51
70544;BME280;58097;48.364;-1.224;2023-02-23T00:48:33;99563.25;;;4.28;82.55
70544;BME280;58097;48.364;-1.224;2023-02-23T00:51:04;99559.06;;;4.24;82.58
70544;BME280;58097;48.364;-1.224;2023-02-23T00:53:30;99563.91;;;4.20;82.49
70544;BME280;58097;48.364;-1.224;2023-02-23T00:55:56;99554.97;;;4.18;82.72
70544;BME280;58097;48.364;-1.224;2023-02-23T00:58:23;99558.72;;;4.17;82.66
70544;BME280;58097;48.364;-1.224;2023-02-23T01:00:49;99569.78;;;4.16;82.76
70544;BME280;58097;48.364;-1.224;2023-02-23T01:03:14;99566.91;;;4.17;82.45
70544;BME280;58097;48.364;-1.224;2023-02-23T01:05:40;99586.19;;;4.16;82.44
70544;BME280;58097;48.364;-1.224;2023-02-23T01:08:05;99580.72;;;4.16;82.63
70544;BME280;58097;48.364;-1.224;2023-02-23T01:10:38;99593.78;;;4.12;82.74
70544;BME280;58097;48.364;-1.224;2023-02-23T01:13:03;99592.03;;;4.11;82.90
70544;BME280;58097;48.364;-1.224;2023-02-23T01:15:30;99587.84;;;4.07;82.78
70544;BME280;58097;48.364;-1.224;2023-02-23T01:17:57;99578.50;;;4.10;82.71
70544;BME280;58097;48.364;-1.224;2023-02-23T01:20:23;99583.25;;;4.08;82.93
70544;BME280;58097;48.364;-1.224;2023-02-23T01:22:49;99584.09;;;4.08;82.76
70544;BME280;58097;48.364;-1.224;2023-02-23T01:25:17;99584.97;;;4.09;82.72
70544;BME280;58097;48.364;-1.224;2023-02-23T01:27:43;99592.44;;;4.07;82.80
70544;BME280;58097;48.364;-1.224;2023-02-23T01:30:11;99586.19;;;4.04;82.69
70544;BME280;58097;48.364;-1.224;2023-02-23T01:32:37;99582.84;;;4.01;82.88
70544;BME280;58097;48.364;-1.224;2023-02-23T01:35:07;99574.78;;;3.99;82.97
70544;BME280;58097;48.364;-1.224;2023-02-23T01:37:34;99582.25;;;3.97;82.80
70544;BME280;58097;48.364;-1.224;2023-02-23T01:40:00;99586.84;;;3.97;82.85
70544;BME280;58097;48.364;-1.224;2023-02-23T01:42:25;99573.31;;;3.95;82.89
70544;BME280;58097;48.364;-1.224;2023-02-23T01:47:16;99564.38;;;3.93;82.87
70544;BME280;58097;48.364;-1.224;2023-02-23T01:49:44;99560.88;;;3.91;82.83
70544;BME280;58097;48.364;-1.224;2023-02-23T01:52:12;99555.56;;;3.90;82.75
70544;BME280;58097;48.364;-1.224;2023-02-23T01:54:43;99552.94;;;3.88;82.69
70544;BME280;58097;48.364;-1.224;2023-02-23T01:57:15;99550.34;;;3.87;82.87
70544;BME280;58097;48.364;-1.224;2023-02-23T01:59:43;99553.06;;;3.87;82.86
70544;BME280;58097;48.364;-1.224;2023-02-23T02:02:10;99545.88;;;3.86;82.89
70544;BME280;58097;48.364;-1.224;2023-02-23T02:04:38;99538.78;;;3.83;82.85
70544;BME280;58097;48.364;-1.224;2023-02-23T02:07:14;99546.88;;;3.85;82.92
70544;BME280;58097;48.364;-1.224;2023-02-23T02:09:41;99548.00;;;3.82;82.83
70544;BME280;58097;48.364;-1.224;2023-02-23T02:12:27;99556.31;;;3.81;82.91
70544;BME280;58097;48.364;-1.224;2023-02-23T02:14:53;99558.06;;;3.82;82.94
70544;BME280;58097;48.364;-1.224;2023-02-23T02:25:51;99545.88;;;3.74;82.80
70544;BME280;58097;48.364;-1.224;2023-02-23T02:40:01;99535.97;;;3.62;83.17
70544;BME280;58097;48.364;-1.224;2023-02-23T02:51:04;99553.00;;;3.55;83.07
70544;BME280;58097;48.364;-1.224;2023-02-23T02:56:37;99539.97;;;3.47;83.07
70544;BME280;58097;48.364;-1.224;2023-02-23T02:59:23;99544.53;;;3.47;82.91
70544;BME280;58097;48.364;-1.224;2023-02-23T03:02:14;99542.94;;;3.44;82.87
70544;BME280;58097;48.364;-1.224;2023-02-23T03:04:59;99545.66;;;3.44;83.00
70544;BME280;58097;48.364;-1.224;2023-02-23T03:11:05;99531.88;;;3.46;83.23
70544;BME280;58097;48.364;-1.224;2023-02-23T03:17:17;99524.19;;;3.39;83.22
70544;BME280;58097;48.364;-1.224;2023-02-23T03:20:25;99520.59;;;3.39;83.04
70544;BME280;58097;48.364;-1.224;2023-02-23T03:26:22;99505.84;;;3.30;82.73
70544;BME280;58097;48.364;-1.224;2023-02-23T03:32:09;99511.06;;;3.22;82.85
70544;BME280;58097;48.364;-1.224;2023-02-23T03:35:09;99519.50;;;3.19;82.89
70544;BME280;58097;48.364;-1.224;2023-02-23T03:38:24;99523.22;;;3.18;82.89
70544;BME280;58097;48.364;-1.224;2023-02-23T03:41:10;99526.06;;;3.17;82.92
70544;BME280;58097;48.364;-1.224;2023-02-23T03:44:02;99521.59;;;3.16;83.00
70544;BME280;58097;48.364;-1.224;2023-02-23T03:46:50;99519.59;;;3.18;82.83
70544;BME280;58097;48.364;-1.224;2023-02-23T03:49:37;99510.16;;;3.10;82.74
70544;BME280;58097;48.364;-1.224;2023-02-23T03:52:26;99518.13;;;3.02;82.24
70544;BME280;58097;48.364;-1.224;2023-02-23T03:55:22;99516.00;;;2.95;82.31
70544;BME280;58097;48.364;-1.224;2023-02-23T03:58:11;99516.25;;;2.92;81.99
70544;BME280;58097;48.364;-1.224;2023-02-23T04:00:58;99516.84;;;2.84;81.96
70544;BME280;58097;48.364;-1.224;2023-02-23T04:03:45;99521.06;;;2.77;82.40
70544;BME280;58097;48.364;-1.224;2023-02-23T04:06:35;99524.16;;;2.72;82.15
70544;BME280;58097;48.364;-1.224;2023-02-23T04:09:21;99517.34;;;2.67;82.30
70544;BME280;58097;48.364;-1.224;2023-02-23T04:12:40;99517.69;;;2.62;82.32
70544;BME280;58097;48.364;-1.224;2023-02-23T04:15:33;99514.22;;;2.60;82.44
70544;BME280;58097;48.364;-1.224;2023-02-23T04:18:03;99518.16;;;2.56;82.27
70544;BME280;58097;48.364;-1.224;2023-02-23T04:20:28;99523.00;;;2.53;82.00
70544;BME280;58097;48.364;-1.224;2023-02-23T04:22:54;99516.91;;;2.49;81.97
70544;BME280;58097;48.364;-1.224;2023-02-23T04:25:20;99521.75;;;2.45;82.10
70544;BME280;58097;48.364;-1.224;2023-02-23T04:27:50;99516.41;;;2.44;82.17
70544;BME280;58097;48.364;-1.224;2023-02-23T04:30:16;99515.66;;;2.42;81.97
70544;BME280;58097;48.364;-1.224;2023-02-23T04:32:42;99514.66;;;2.43;82.01
70544;BME280;58097;48.364;-1.224;2023-02-23T04:35:11;99511.94;;;2.43;82.14
70544;BME280;58097;48.364;-1.224;2023-02-23T04:37:36;99507.59;;;2.40;82.06
70544;BME280;58097;48.364;-1.224;2023-02-23T04:40:03;99513.41;;;2.36;82.33
70544;BME280;58097;48.364;-1.224;2023-02-23T04:42:28;99513.41;;;2.36;82.36
70544;BME280;58097;48.364;-1.224;2023-02-23T04:44:54;99520.19;;;2.30;82.09
70544;BME280;58097;48.364;-1.224;2023-02-23T04:47:19;99519.31;;;2.30;82.45
70544;BME280;58097;48.364;-1.224;2023-02-23T04:49:45;99512.78;;;2.32;82.57
70544;BME280;58097;48.364;-1.224;2023-02-23T04:52:10;99507.53;;;2.29;82.73
70544;BME280;58097;48.364;-1.224;2023-02-23T04:54:39;99500.34;;;2.28;82.90
70544;BME280;58097;48.364;-1.224;2023-02-23T04:57:05;99497.75;;;2.27;83.01
70544;BME280;58097;48.364;-1.224;2023-02-23T04:59:31;99501.22;;;2.29;82.96
70544;BME280;58097;48.364;-1.224;2023-02-23T05:01:56;99497.00;;;2.25;83.08
70544;BME280;58097;48.364;-1.224;2023-02-23T05:04:21;99502.56;;;2.23;83.04
70544;BME280;58097;48.364;-1.224;2023-02-23T05:06:47;99505.19;;;2.25;83.06
70544;BME280;58097;48.364;-1.224;2023-02-23T05:09:13;99509.53;;;2.27;83.11
70544;BME280;58097;48.364;-1.224;2023-02-23T05:11:39;99526.00;;;2.26;83.06
70544;BME280;58097;48.364;-1.224;2023-02-23T05:14:04;99523.28;;;2.26;83.06
70544;BME280;58097;48.364;-1.224;2023-02-23T05:16:30;99524.25;;;2.25;83.24
70544;BME280;58097;48.364;-1.224;2023-02-23T05:18:55;99528.84;;;2.24;83.00
70544;BME280;58097;48.364;-1.224;2023-02-23T05:21:21;99536.16;;;2.24;82.96
70544;BME280;58097;48.364;-1.224;2023-02-23T05:23:46;99534.28;;;2.24;83.38
70544;BME280;58097;48.364;-1.224;2023-02-23T05:26:12;99528.03;;;2.35;83.63
70544;BME280;58097;48.364;-1.224;2023-02-23T05:28:40;99543.03;;;2.40;83.46
70544;BME280;58097;48.364;-1.224;2023-02-23T05:31:06;99543.44;;;2.47;83.61
70544;BME280;58097;48.364;-1.224;2023-02-23T05:33:33;99535.25;;;2.47;83.73
70544;BME280;58097;48.364;-1.224;2023-02-23T05:35:59;99529.69;;;2.48;83.48
70544;BME280;58097;48.364;-1.224;2023-02-23T05:38:25;99533.75;;;2.43;83.26
70544;BME280;58097;48.364;-1.224;2023-02-23T05:40:51;99535.25;;;2.47;83.58
70544;BME280;58097;48.364;-1.224;2023-02-23T05:43:16;99538.59;;;2.51;83.83
70544;BME280;58097;48.364;-1.224;2023-02-23T05:45:43;99525.34;;;2.57;84.26
70544;BME280;58097;48.364;-1.224;2023-02-23T05:48:10;99522.16;;;2.63;84.54
70544;BME280;58097;48.364;-1.224;2023-02-23T05:50:36;99535.19;;;2.71;84.82
70544;BME280;58097;48.364;-1.224;2023-02-23T05:53:02;99522.91;;;2.76;84.58
70544;BME280;58097;48.364;-1.224;2023-02-23T05:55:27;99516.59;;;2.76;84.30
70544;BME280;58097;48.364;-1.224;2023-02-23T05:57:53;99509.53;;;2.73;84.23
70544;BME280;58097;48.364;-1.224;2023-02-23T06:00:18;99512.38;;;2.72;84.35
70544;BME280;58097;48.364;-1.224;2023-02-23T06:02:44;99505.06;;;2.72;84.27
70544;BME280;58097;48.364;-1.224;2023-02-23T06:05:10;99507.53;;;2.75;84.15
70544;BME280;58097;48.364;-1.224;2023-02-23T06:07:37;99509.91;;;2.80;84.23
70544;BME280;58097;48.364;-1.224;2023-02-23T06:10:03;99495.38;;;2.79;84.24
70544;BME280;58097;48.364;-1.224;2023-02-23T06:12:29;99500.72;;;2.81;84.12
70544;BME280;58097;48.364;-1.224;2023-02-23T06:14:54;99505.56;;;2.77;84.09
70544;BME280;58097;48.364;-1.224;2023-02-23T06:17:19;99489.44;;;2.74;84.01
70544;BME280;58097;48.364;-1.224;2023-02-23T06:19:45;99504.81;;;2.75;84.04
70544;BME280;58097;48.364;-1.224;2023-02-23T06:22:10;99497.00;;;2.71;84.03
70544;BME280;58097;48.364;-1.224;2023-02-23T06:24:36;99495.88;;;2.73;83.96
70544;BME280;58097;48.364;-1.224;2023-02-23T06:27:01;99495.88;;;2.73;84.00
70544;BME280;58097;48.364;-1.224;2023-02-23T06:29:26;99491.78;;;2.68;83.89
70544;BME280;58097;48.364;-1.224;2023-02-23T06:31:52;99488.31;;;2.66;83.91
70544;BME280;58097;48.364;-1.224;2023-02-23T06:34:17;99501.22;;;2.64;83.86
70544;BME280;58097;48.364;-1.224;2023-02-23T06:36:43;99500.34;;;2.63;83.83
70544;BME280;58097;48.364;-1.224;2023-02-23T06:39:10;99501.34;;;2.62;83.51
70544;BME280;58097;48.364;-1.224;2023-02-23T06:41:35;99502.66;;;2.57;82.97
70544;BME280;58097;48.364;-1.224;2023-02-23T06:44:01;99510.72;;;2.47;83.02
70544;BME280;58097;48.364;-1.224;2023-02-23T06:46:26;99504.00;;;2.40;82.77
70544;BME280;58097;48.364;-1.224;2023-02-23T06:48:56;99505.56;;;2.31;83.11
70544;BME280;58097;48.364;-1.224;2023-02-23T06:51:22;99508.66;;;2.27;83.06
70544;BME280;58097;48.364;-1.224;2023-02-23T06:53:48;99515.56;;;2.20;83.04
70544;BME280;58097;48.364;-1.224;2023-02-23T06:56:13;99517.66;;;2.16;83.11
70544;BME280;58097;48.364;-1.224;2023-02-23T06:58:39;99525.97;;;2.14;83.15
70544;BME280;58097;48.364;-1.224;2023-02-23T07:01:05;99532.53;;;2.12;82.84
70544;BME280;58097;48.364;-1.224;2023-02-23T07:03:31;99533.63;;;2.09;82.76
70544;BME280;58097;48.364;-1.224;2023-02-23T07:05:56;99546.28;;;2.10;83.18
70544;BME280;58097;48.364;-1.224;2023-02-23T07:08:22;99532.75;;;2.09;83.33
70544;BME280;58097;48.364;-1.224;2023-02-23T07:10:47;99529.06;;;2.10;83.46
70544;BME280;58097;48.364;-1.224;2023-02-23T07:13:13;99535.50;;;2.09;83.49
70544;BME280;58097;48.364;-1.224;2023-02-23T07:15:39;99537.09;;;2.11;83.76
70544;BME280;58097;48.364;-1.224;2023-02-23T07:18:05;99520.63;;;2.13;83.76
70544;BME280;58097;48.364;-1.224;2023-02-23T07:20:31;99516.91;;;2.14;83.58
70544;BME280;58097;48.364;-1.224;2023-02-23T07:22:58;99519.41;;;2.17;83.77
70544;BME280;58097;48.364;-1.224;2023-02-23T07:25:26;99516.31;;;2.22;83.90
70544;BME280;58097;48.364;-1.224;2023-02-23T07:27:51;99511.50;;;2.25;84.43
70544;BME280;58097;48.364;-1.224;2023-02-23T07:30:18;99516.72;;;2.28;84.42
70544;BME280;58097;48.364;-1.224;2023-02-23T07:32:44;99518.31;;;2.31;84.41
70544;BME280;58097;48.364;-1.224;2023-02-23T07:35:09;99520.84;;;2.34;84.40
70544;BME280;58097;48.364;-1.224;2023-02-23T07:37:35;99522.34;;;2.38;84.59
70544;BME280;58097;48.364;-1.224;2023-02-23T07:40:00;99529.28;;;2.42;84.35
70544;BME280;58097;48.364;-1.224;2023-02-23T07:42:26;99532.66;;;2.45;84.35
70544;BME280;58097;48.364;-1.224;2023-02-23T07:44:51;99544.53;;;2.44;84.22
70544;BME280;58097;48.364;-1.224;2023-02-23T07:47:17;99545.53;;;2.43;84.23
70544;BME280;58097;48.364;-1.224;2023-02-23T07:49:42;99552.47;;;2.47;84.60
70544;BME280;58097;48.364;-1.224;2023-02-23T07:52:07;99551.38;;;2.50;84.54
70544;BME280;58097;48.364;-1.224;2023-02-23T07:54:33;99550.16;;;2.54;84.42
70544;BME280;58097;48.364;-1.224;2023-02-23T07:56:58;99544.56;;;2.56;84.52
70544;BME280;58097;48.364;-1.224;2023-02-23T07:59:24;99547.91;;;2.59;84.72
70544;BME280;58097;48.364;-1.224;2023-02-23T08:01:49;99549.22;;;2.66;84.95
70544;BME280;58097;48.364;-1.224;2023-02-23T08:04:17;99544.25;;;2.71;85.12
70544;BME280;58097;48.364;-1.224;2023-02-23T08:06:42;99543.88;;;2.76;84.90
70544;BME280;58097;48.364;-1.224;2023-02-23T08:09:07;99553.44;;;2.82;84.94
70544;BME280;58097;48.364;-1.224;2023-02-23T08:11:33;99551.47;;;2.84;85.17
70544;BME280;58097;48.364;-1.224;2023-02-23T08:13:58;99552.94;;;2.88;85.38
70544;BME280;58097;48.364;-1.224;2023-02-23T08:16:29;99563.41;;;2.94;85.30
70544;BME280;58097;48.364;-1.224;2023-02-23T08:18:58;99557.69;;;2.97;85.18
70544;BME280;58097;48.364;-1.224;2023-02-23T08:21:25;99548.91;;;3.04;85.37
70544;BME280;58097;48.364;-1.224;2023-02-23T08:23:51;99543.31;;;3.06;85.23
70544;BME280;58097;48.364;-1.224;2023-02-23T08:26:17;99557.94;;;3.05;85.29
70544;BME280;58097;48.364;-1.224;2023-02-23T08:28:42;99561.44;;;3.07;85.42
70544;BME280;58097;48.364;-1.224;2023-02-23T08:31:13;99563.53;;;3.15;85.12
70544;BME280;58097;48.364;-1.224;2023-02-23T08:33:40;99555.22;;;3.16;85.23
70544;BME280;58097;48.364;-1.224;2023-02-23T08:36:06;99553.13;;;3.20;85.37
70544;BME280;58097;48.364;-1.224;2023-02-23T08:38:32;99556.38;;;3.25;85.34
70544;BME280;58097;48.364;-1.224;2023-02-23T08:41:00;99558.47;;;3.32;85.63
70544;BME280;58097;48.364;-1.224;2023-02-23T08:43:26;99551.25;;;3.42;85.72
70544;BME280;58097;48.364;-1.224;2023-02-23T08:45:52;99547.41;;;3.56;85.74
70544;BME280;58097;48.364;-1.224;2023-02-23T08:48:17;99546.38;;;3.68;85.72
70544;BME280;58097;48.364;-1.224;2023-02-23T08:50:42;99542.78;;;3.79;85.57
70544;BME280;58097;48.364;-1.224;2023-02-23T08:53:08;99537.28;;;3.90;85.44
70544;BME280;58097;48.364;-1.224;2023-02-23T08:55:33;99544.69;;;3.99;85.34
70544;BME280;58097;48.364;-1.224;2023-02-23T08:57:59;99546.09;;;4.05;85.55
70544;BME280;58097;48.364;-1.224;2023-02-23T09:00:25;99547.28;;;4.12;85.49
70544;BME280;58097;48.364;-1.224;2023-02-23T09:02:50;99547.63;;;4.19;85.36
70544;BME280;58097;48.364;-1.224;2023-02-23T09:05:16;99544.50;;;4.23;85.32
70544;BME280;58097;48.364;-1.224;2023-02-23T09:07:42;99553.31;;;4.27;84.92
70544;BME280;58097;48.364;-1.224;2023-02-23T09:10:11;99557.78;;;4.28;84.97
70544;BME280;58097;48.364;-1.224;2023-02-23T09:12:38;99558.25;;;4.33;85.16
70544;BME280;58097;48.364;-1.224;2023-02-23T09:15:04;99564.09;;;4.40;85.37
70544;BME280;58097;48.364;-1.224;2023-02-23T09:17:29;99563.56;;;4.46;85.61
70544;BME280;58097;48.364;-1.224;2023-02-23T09:19:55;99562.03;;;4.53;85.91
70544;BME280;58097;48.364;-1.224;2023-02-23T09:22:20;99561.25;;;4.62;86.04
70544;BME280;58097;48.364;-1.224;2023-02-23T09:24:45;99575.75;;;4.74;86.51
70544;BME280;58097;48.364;-1.224;2023-02-23T09:27:11;99568.06;;;4.88;86.29
70544;BME280;58097;48.364;-1.224;2023-02-23T09:29:37;99572.91;;;4.96;86.60
70544;BME280;58097;48.364;-1.224;2023-02-23T09:32:06;99560.84;;;5.08;86.66
70544;BME280;58097;48.364;-1.224;2023-02-23T09:34:31;99568.97;;;5.19;86.88
70544;BME280;58097;48.364;-1.224;2023-02-23T09:36:56;99574.41;;;5.31;86.73
70544;BME280;58097;48.364;-1.224;2023-02-23T09:39:22;99573.84;;;5.37;86.46
70544;BME280;58097;48.364;-1.224;2023-02-23T09:50:33;99583.59;;;5.50;86.38
70544;BME280;58097;48.364;-1.224;2023-02-23T09:53:23;99584.91;;;5.56;86.18
70544;BME280;58097;48.364;-1.224;2023-02-23T09:55:52;99590.25;;;5.57;86.26
70544;BME280;58097;48.364;-1.224;2023-02-23T09:58:23;99596.75;;;5.56;85.94
70544;BME280;58097;48.364;-1.224;2023-02-23T10:06:49;99602.66;;;5.52;86.15
70544;BME280;58097;48.364;-1.224;2023-02-23T10:15:13;99594.31;;;5.63;86.94
70544;BME280;58097;48.364;-1.224;2023-02-23T10:20:34;99579.81;;;5.82;87.40
70544;BME280;58097;48.364;-1.224;2023-02-23T10:23:05;99580.59;;;5.94;87.67
70544;BME280;58097;48.364;-1.224;2023-02-23T10:25:35;99586.38;;;6.00;87.77
70544;BME280;58097;48.364;-1.224;2023-02-23T10:28:02;99586.16;;;6.13;87.82
70544;BME280;58097;48.364;-1.224;2023-02-23T10:30:31;99580.53;;;6.24;87.68
70544;BME280;58097;48.364;-1.224;2023-02-23T10:35:28;99590.53;;;6.44;87.20
70544;BME280;58097;48.364;-1.224;2023-02-23T10:37:55;99597.47;;;6.48;86.50
70544;BME280;58097;48.364;-1.224;2023-02-23T10:40:25;99605.13;;;6.55;86.26
70544;BME280;58097;48.364;-1.224;2023-02-23T10:42:53;99600.34;;;6.57;86.45
70544;BME280;58097;48.364;-1.224;2023-02-23T10:45:21;99602.81;;;6.60;86.26
70544;BME280;58097;48.364;-1.224;2023-02-23T10:48:00;99598.75;;;6.64;86.19
70544;BME280;58097;48.364;-1.224;2023-02-23T10:50:29;99592.56;;;6.71;86.70
70544;BME280;58097;48.364;-1.224;2023-02-23T10:53:25;99593.72;;;6.78;86.32
70544;BME280;58097;48.364;-1.224;2023-02-23T10:56:11;99589.53;;;6.84;86.44
70544;BME280;58097;48.364;-1.224;2023-02-23T10:58:52;99595.16;;;6.92;86.16
70544;BME280;58097;48.364;-1.224;2023-02-23T11:01:38;99598.78;;;7.02;86.60
70544;BME280;58097;48.364;-1.224;2023-02-23T11:04:17;99586.59;;;7.14;86.64
70544;BME280;58097;48.364;-1.224;2023-02-23T11:06:43;99583.97;;;7.23;86.45
70544;BME280;58097;48.364;-1.224;2023-02-23T11:09:30;99588.75;;;7.30;85.90
70544;BME280;58097;48.364;-1.224;2023-02-23T11:11:58;99583.81;;;7.34;85.81
70544;BME280;58097;48.364;-1.224;2023-02-23T11:14:26;99581.63;;;7.37;85.71
70544;BME280;58097;48.364;-1.224;2023-02-23T11:16:52;99577.56;;;7.41;85.68
70544;BME280;58097;48.364;-1.224;2023-02-23T11:19:32;99578.22;;;7.26;84.12
70544;BME280;58097;48.364;-1.224;2023-02-23T11:21:58;99574.59;;;7.25;83.63
70544;BME280;58097;48.364;-1.224;2023-02-23T11:24:31;99575.16;;;7.29;84.73
70544;BME280;58097;48.364;-1.224;2023-02-23T11:26:59;99569.78;;;7.37;84.52
70544;BME280;58097;48.364;-1.224;2023-02-23T11:29:37;99568.44;;;7.41;84.36
70544;BME280;58097;48.364;-1.224;2023-02-23T11:32:08;99565.41;;;7.44;85.00
70544;BME280;58097;48.364;-1.224;2023-02-23T11:34:35;99566.31;;;7.35;82.06
70544;BME280;58097;48.364;-1.224;2023-02-23T11:39:59;99553.59;;;7.34;82.55
70544;BME280;58097;48.364;-1.224;2023-02-23T11:42:26;99555.00;;;7.38;83.56
70544;BME280;58097;48.364;-1.224;2023-02-23T11:45:14;99554.91;;;7.30;82.04
70544;BME280;58097;48.364;-1.224;2023-02-23T11:47:44;99560.22;;;7.41;83.87
70544;BME280;58097;48.364;-1.224;2023-02-23T11:50:31;99563.94;;;7.50;83.69
70544;BME280;58097;48.364;-1.224;2023-02-23T11:53:15;99556.69;;;7.58;84.59
70544;BME280;58097;48.364;-1.224;2023-02-23T11:55:48;99554.50;;;7.62;84.02
70544;BME280;58097;48.364;-1.224;2023-02-23T12:00:59;99547.72;;;7.56;82.32
70544;BME280;58097;48.364;-1.224;2023-02-23T12:03:28;99546.00;;;7.55;82.77
70544;BME280;58097;48.364;-1.224;2023-02-23T12:05:55;99538.75;;;7.54;83.02
70544;BME280;58097;48.364;-1.224;2023-02-23T12:08:44;99538.31;;;7.49;80.94
70544;BME280;58097;48.364;-1.224;2023-02-23T12:11:18;99540.03;;;7.50;81.80
70544;BME280;58097;48.364;-1.224;2023-02-23T12:16:42;99522.13;;;7.46;81.04
70544;BME280;58097;48.364;-1.224;2023-02-23T12:19:44;99518.78;;;7.52;81.72
70544;BME280;58097;48.364;-1.224;2023-02-23T12:22:22;99517.16;;;7.59;81.63
70544;BME280;58097;48.364;-1.224;2023-02-23T12:27:21;99519.00;;;7.68;82.43
70544;BME280;58097;48.364;-1.224;2023-02-23T12:32:52;99504.22;;;7.69;79.36
70544;BME280;58097;48.364;-1.224;2023-02-23T12:38:11;99503.19;;;7.70;80.63
70544;BME280;58097;48.364;-1.224;2023-02-23T12:40:38;99506.50;;;7.74;80.56
70544;BME280;58097;48.364;-1.224;2023-02-23T12:54:21;99481.28;;;7.78;80.03
70544;BME280;58097;48.364;-1.224;2023-02-23T13:02:09;99498.88;;;7.68;78.49
70544;BME280;58097;48.364;-1.224;2023-02-23T13:05:01;99492.66;;;7.66;79.41
70544;BME280;58097;48.364;-1.224;2023-02-23T13:18:31;99479.63;;;7.68;79.72
70544;BME280;58097;48.364;-1.224;2023-02-23T13:23:35;99473.34;;;7.75;80.88
70544;BME280;58097;48.364;-1.224;2023-02-23T13:31:01;99461.13;;;7.88;81.83
70544;BME280;58097;48.364;-1.224;2023-02-23T13:33:28;99466.00;;;7.94;81.80
70544;BME280;58097;48.364;-1.224;2023-02-23T13:36:00;99469.31;;;7.97;81.65
70544;BME280;58097;48.364;-1.224;2023-02-23T13:41:29;99467.19;;;8.09;81.99
70544;BME280;58097;48.364;-1.224;2023-02-23T13:44:40;99466.63;;;8.05;80.15
70544;BME280;58097;48.364;-1.224;2023-02-23T13:47:12;99454.75;;;8.05;80.50
70544;BME280;58097;48.364;-1.224;2023-02-23T13:49:53;99449.34;;;7.95;79.89
70544;BME280;58097;48.364;-1.224;2023-02-23T13:52:41;99444.78;;;7.86;79.11
70544;BME280;58097;48.364;-1.224;2023-02-23T13:55:48;99440.84;;;7.89;80.36
70544;BME280;58097;48.364;-1.224;2023-02-23T13:58:28;99448.78;;;7.92;81.21
70544;BME280;58097;48.364;-1.224;2023-02-23T14:03:31;99435.56;;;7.95;81.23
70544;BME280;58097;48.364;-1.224;2023-02-23T14:06:00;99433.38;;;7.99;81.61
70544;BME280;58097;48.364;-1.224;2023-02-23T14:08:37;99430.47;;;8.00;81.55
70544;BME280;58097;48.364;-1.224;2023-02-23T14:11:03;99431.81;;;7.96;80.26
70544;BME280;58097;48.364;-1.224;2023-02-23T14:13:32;99430.06;;;7.95;80.74
70544;BME280;58097;48.364;-1.224;2023-02-23T14:16:08;99435.97;;;7.83;78.35
70544;BME280;58097;48.364;-1.224;2023-02-23T14:18:52;99435.81;;;7.84;79.17
70544;BME280;58097;48.364;-1.224;2023-02-23T14:29:30;99427.72;;;7.83;79.25
70544;BME280;58097;48.364;-1.224;2023-02-23T14:37:35;99419.84;;;7.88;79.18
70544;BME280;58097;48.364;-1.224;2023-02-23T14:40:13;99422.94;;;7.85;78.11
70544;BME280;58097;48.364;-1.224;2023-02-23T14:42:40;99422.78;;;7.86;78.82
70544;BME280;58097;48.364;-1.224;2023-02-23T14:45:36;99421.75;;;7.87;78.56
70544;BME280;58097;48.364;-1.224;2023-02-23T14:48:06;99422.78;;;7.86;78.30
70544;BME280;58097;48.364;-1.224;2023-02-23T14:50:34;99426.53;;;7.85;78.27
70544;BME280;58097;48.364;-1.224;2023-02-23T14:53:02;99416.41;;;7.86;78.62
70544;BME280;58097;48.364;-1.224;2023-02-23T14:55:32;99424.97;;;7.83;77.93
70544;BME280;58097;48.364;-1.224;2023-02-23T14:58:02;99416.41;;;7.86;78.88
70544;BME280;58097;48.364;-1.224;2023-02-23T15:00:30;99418.13;;;7.87;79.29
70544;BME280;58097;48.364;-1.224;2023-02-23T15:03:05;99415.00;;;7.82;78.19
70544;BME280;58097;48.364;-1.224;2023-02-23T15:05:36;99421.63;;;7.79;78.38
70544;BME280;58097;48.364;-1.224;2023-02-23T15:08:05;99413.97;;;7.83;79.16
70544;BME280;58097;48.364;-1.224;2023-02-23T15:10:35;99406.56;;;7.83;79.46
70544;BME280;58097;48.364;-1.224;2023-02-23T15:13:25;99415.69;;;7.84;79.89
70544;BME280;58097;48.364;-1.224;2023-02-23T15:15:51;99408.47;;;7.83;79.37
70544;BME280;58097;48.364;-1.224;2023-02-23T15:18:30;99405.00;;;7.81;79.36
70544;BME280;58097;48.364;-1.224;2023-02-23T15:20:56;99401.22;;;7.82;80.23
70544;BME280;58097;48.364;-1.224;2023-02-23T15:23:23;99402.81;;;7.84;80.51
70544;BME280;58097;48.364;-1.224;2023-02-23T15:25:48;99403.81;;;7.83;80.68
70544;BME280;58097;48.364;-1.224;2023-02-23T15:30:48;99394.88;;;7.81;81.08
70544;BME280;58097;48.364;-1.224;2023-02-23T15:33:15;99388.34;;;7.82;81.65
70544;BME280;58097;48.364;-1.224;2023-02-23T15:38:25;99384.47;;;7.75;81.50
70544;BME280;58097;48.364;-1.224;2023-02-23T15:40:59;99386.34;;;7.74;81.82
70544;BME280;58097;48.364;-1.224;2023-02-23T15:43:26;99379.44;;;7.70;81.97
70544;BME280;58097;48.364;-1.224;2023-02-23T15:45:55;99374.25;;;7.67;81.91
70544;BME280;58097;48.364;-1.224;2023-02-23T15:48:24;99377.88;;;7.68;81.74